Date,TemperatureHighF,TemperatureAvgF,TemperatureLowF,DewpointHighF,DewpointAvgF,DewpointLowF,HumidityHigh,HumidityAvg,HumidityLow,PressureMaxIn,PressureMinIn,WindSpeedMaxMPH,WindSpeedAvgMPH,GustSpeedMaxMPH,PrecipitationSumIn
2013-3-1,49,40,31,35,31,28,89,70,49,29.94,29.86,8,2,14,0.00
2013-3-2,47,39,30,31,28,23,88,65,47,29.94,29.84,5,1,12,0.00
2013-3-3,46,37,30,27,23,18,77,58,41,30.01,29.87,10,4,13,0.00
2013-3-4,50,38,27,24,19,16,69,48,28,30.14,30.00,10,4,19,0.00
2013-3-5,52,43,36,44,36,20,95,78,42,30.12,29.61,9,1,11,0.28
2013-3-6,46,41,37,45,36,30,100,80,63,30.04,29.51,19,9,30,0.07
2013-3-7,49,42,34,35,32,28,85,67,52,30.26,30.03,10,4,15,0.00
2013-3-8,55,44,32,31,28,26,79,57,35,30.31,30.17,11,4,20,0.00
2013-3-9,62,47,37,35,31,27,75,55,30,30.36,30.27,6,1,11,0.00
2013-3-10,66,51,35,36,29,19,85,50,17,30.36,30.25,4,1,10,0.00
2013-3-11,71,56,41,53,46,30,94,70,46,30.28,29.99,10,4,15,0.00
2013-3-12,70,62,51,62,55,37,95,80,59,29.99,29.77,13,6,23,0.38
2013-3-13,57,47,36,37,30,21,90,53,31,30.15,29.96,13,5,22,0.00
2013-3-14,54,40,30,27,22,18,71,49,26,30.26,30.13,11,4,19,0.00
2013-3-15,63,46,30,37,28,21,79,51,34,30.22,29.93,12,4,19,0.00
2013-3-16,78,62,50,52,45,36,72,55,36,29.93,29.67,13,5,22,0.00
2013-3-17,64,53,41,53,47,38,95,79,65,30.22,29.85,5,1,12,0.00
2013-3-18,43,41,38,42,40,37,100,96,92,30.23,29.92,9,1,9,0.15
2013-3-19,67,52,41,50,36,17,97,63,22,30.04,29.84,11,5,16,0.03
2013-3-20,55,46,37,27,20,13,62,36,24,30.15,29.83,7,2,12,0.00
2013-3-21,46,40,32,32,22,12,70,50,32,30.00,29.75,13,4,21,0.00
2013-3-22,52,38,24,24,17,14,72,46,23,30.11,30.00,9,3,16,0.00
2013-3-23,56,46,36,34,28,22,78,51,32,30.09,29.94,3,0,6,0.00
2013-3-24,41,39,36,39,35,30,95,88,73,29.97,29.60,5,1,13,0.70
2013-3-25,48,41,36,39,32,26,96,75,45,29.83,29.57,16,5,22,0.01
2013-3-26,49,43,35,33,29,26,76,60,48,30.12,29.83,10,4,14,0.00
2013-3-27,53,42,30,31,27,23,88,58,35,30.25,30.13,12,5,20,0.00
2013-3-28,56,44,32,30,27,25,82,54,30,30.32,30.17,10,3,17,0.00
2013-3-29,59,46,33,33,28,26,84,53,29,30.36,30.21,8,2,13,0.00
2013-3-30,66,52,38,45,35,28,84,55,30,30.28,30.12,6,1,7,0.00
2013-3-31,67,57,49,58,51,43,96,82,69,30.14,29.83,10,3,14,0.44